Time;durP1;ratioP1;P1;durP2;ratioP2;P2;SDS_P1;SDS_P2;PMS_P1;PMS_P2;Temp;Humidity;BMP_temperature;BMP_pressure;BME280_temperature;BME280_humidity;BME280_pressure;Samples;Min_cycle;Max_cycle;Signal;HPM_P1;HPM_P2
2021/09/01 00:01:46;;;;;;;11.78;7.28;;;;;;;24.26;53.76;100491.23;1773416;78;21060;-45
2021/09/01 00:04:14;;;;;;;9.93;7.25;;;;;;;24.24;53.78;100486.58;1766693;78;21075;-44
2021/09/01 00:06:40;;;;;;;10.58;7.10;;;;;;;24.24;53.79;100478.24;1774906;78;21170;-44
2021/09/01 00:09:06;;;;;;;9.30;6.62;;;;;;;24.23;53.81;100480.20;1778267;78;21267;-44
2021/09/01 00:11:33;;;;;;;12.53;7.03;;;;;;;24.22;53.82;100481.39;1776627;78;21449;-44
2021/09/01 00:13:59;;;;;;;10.43;7.30;;;;;;;24.22;53.85;100484.17;1777410;78;21893;-46
2021/09/01 00:16:26;;;;;;;10.28;6.72;;;;;;;24.22;53.85;100475.83;1763716;78;21060;-44
2021/09/01 00:18:55;;;;;;;8.90;6.70;;;;;;;24.20;53.86;100473.97;1762711;78;21443;-45
2021/09/01 00:21:22;;;;;;;9.90;6.30;;;;;;;24.21;53.86;100479.77;1778365;78;21067;-45
2021/09/01 00:23:49;;;;;;;9.60;6.40;;;;;;;24.20;53.88;100480.10;1792149;78;21004;-45
2021/09/01 00:26:16;;;;;;;9.23;6.30;;;;;;;24.18;53.90;100488.81;1783198;78;21567;-46
2021/09/01 00:28:42;;;;;;;8.13;6.17;;;;;;;24.18;53.89;100489.39;1786473;78;21017;-45
2021/09/01 00:31:08;;;;;;;8.05;6.05;;;;;;;24.17;53.91;100489.15;1792708;78;21563;-45
2021/09/01 00:33:35;;;;;;;7.87;5.80;;;;;;;24.18;53.92;100499.12;1786227;78;21517;-45
2021/09/01 00:36:01;;;;;;;8.73;6.05;;;;;;;24.16;53.95;100498.06;1789025;78;21126;-45
2021/09/01 00:38:28;;;;;;;8.00;5.75;;;;;;;24.16;53.94;100494.47;1792545;78;21012;-47
2021/09/01 00:40:54;;;;;;;7.60;5.67;;;;;;;24.15;53.94;100496.44;1781886;78;21527;-46
2021/09/01 00:43:23;;;;;;;7.15;5.37;;;;;;;24.14;53.94;100492.03;1789866;78;22648;-46
2021/09/01 00:45:49;;;;;;;8.58;5.53;;;;;;;24.14;53.97;100487.86;1787847;78;21076;-46
2021/09/01 00:48:18;;;;;;;6.72;5.45;;;;;;;24.13;53.96;100492.61;1786425;78;21028;-45
2021/09/01 00:50:47;;;;;;;7.25;5.50;;;;;;;24.14;53.99;100496.20;1790031;78;21004;-46
2021/09/01 00:53:14;;;;;;;7.30;5.22;;;;;;;24.12;53.99;100494.33;1790757;78;21067;-46
2021/09/01 00:55:45;;;;;;;6.25;4.80;;;;;;;24.11;54.00;100494.91;1787778;78;21301;-45
2021/09/01 00:58:13;;;;;;;6.92;4.55;;;;;;;24.10;54.00;100493.89;1788394;79;20966;-45
2021/09/01 01:00:55;;;;;;;6.17;4.87;;;;;;;24.10;54.01;100491.11;1742866;79;21549;-45
2021/09/01 01:03:07;;;;;;;6.80;4.85;;;;;;;24.09;54.03;100492.26;1782853;78;21044;-45
2021/09/01 01:05:33;;;;;;;6.50;5.03;;;;;;;24.08;54.04;100488.66;1793045;78;20995;-45
2021/09/01 01:07:59;;;;;;;6.47;5.08;;;;;;;24.08;54.04;100489.23;1799150;78;21311;-45
2021/09/01 01:10:25;;;;;;;5.97;4.45;;;;;;;24.07;54.04;100490.39;1753645;80;21119;-45
2021/09/01 01:12:52;;;;;;;8.10;4.67;;;;;;;24.07;54.06;100487.61;1753042;79;20984;-46
2021/09/01 01:15:18;;;;;;;6.60;4.62;;;;;;;24.07;54.06;100487.61;1794272;78;21142;-46
2021/09/01 01:17:44;;;;;;;6.47;4.47;;;;;;;24.06;54.07;100490.19;1776407;79;21055;-45
2021/09/01 01:20:11;;;;;;;6.40;4.28;;;;;;;24.05;54.06;100484.39;1785904;78;21034;-46
2021/09/01 01:22:37;;;;;;;5.60;4.15;;;;;;;24.05;54.06;100478.83;1777860;78;21072;-46
2021/09/01 01:25:06;;;;;;;5.60;4.58;;;;;;;24.04;54.08;100482.77;1763005;78;21019;-45
2021/09/01 01:27:39;;;;;;;6.67;4.50;;;;;;;24.04;54.09;100485.54;1758373;78;21001;-46
2021/09/01 01:30:18;;;;;;;6.87;4.10;;;;;;;24.02;54.10;100488.66;1764283;78;21138;-45
2021/09/01 01:32:46;;;;;;;6.12;4.17;;;;;;;24.03;54.11;100479.75;1763821;78;21140;-45
2021/09/01 01:35:29;;;;;;;6.12;4.37;;;;;;;24.03;54.12;100470.02;1771961;78;21062;-45
2021/09/01 01:37:56;;;;;;;4.95;3.98;;;;;;;24.01;54.13;100475.94;1765115;78;21083;-45
2021/09/01 01:40:23;;;;;;;5.75;4.08;;;;;;;24.00;54.12;100461.00;1768273;78;21035;-45
2021/09/01 01:42:51;;;;;;;5.47;4.17;;;;;;;23.99;54.12;100457.41;1764399;78;21045;-44
2021/09/01 01:45:17;;;;;;;4.40;3.35;;;;;;;23.99;54.13;100456.59;1766217;78;21156;-44
2021/09/01 01:47:43;;;;;;;6.10;3.98;;;;;;;23.98;54.17;100456.36;1770460;78;21039;-46
2021/09/01 01:50:10;;;;;;;5.12;3.50;;;;;;;23.97;54.17;100448.62;1779629;78;21002;-45
2021/09/01 01:52:36;;;;;;;4.70;3.62;;;;;;;23.98;54.19;100450.80;1772573;78;21472;-44
2021/09/01 01:55:05;;;;;;;5.92;3.95;;;;;;;23.96;54.20;100446.19;1759411;78;21138;-45
2021/09/01 01:57:31;;;;;;;4.87;3.80;;;;;;;23.96;54.21;100454.52;1775911;78;21804;-45
2021/09/01 01:59:57;;;;;;;5.22;3.62;;;;;;;23.96;54.21;100451.73;1768596;78;21001;-45
2021/09/01 02:02:29;;;;;;;5.78;3.40;;;;;;;23.94;54.23;100455.43;1770252;78;21711;-47
2021/09/01 02:04:51;;;;;;;4.50;3.58;;;;;;;23.94;54.25;100449.88;1776145;78;21427;-45
2021/09/01 02:07:17;;;;;;;5.85;3.40;;;;;;;23.93;54.26;100452.45;1762654;78;20946;-45
2021/09/01 02:09:43;;;;;;;4.50;3.25;;;;;;;23.93;54.25;100451.05;1775371;78;21202;-45
2021/09/01 02:12:10;;;;;;;5.67;3.80;;;;;;;23.92;54.25;100459.97;1761401;78;21012;-44
2021/09/01 02:14:36;;;;;;;5.95;3.70;;;;;;;23.91;54.24;100455.56;1773207;78;21088;-44
2021/09/01 02:17:03;;;;;;;5.28;3.75;;;;;;;23.91;54.25;100456.95;1779241;78;21927;-47
2021/09/01 02:19:29;;;;;;;4.85;3.55;;;;;;;23.91;54.27;100459.73;1771576;78;21071;-44
2021/09/01 02:21:55;;;;;;;4.65;3.47;;;;;;;23.91;54.28;100456.14;1763115;78;21126;-47
2021/09/01 02:24:22;;;;;;;4.83;3.60;;;;;;;23.89;54.30;100459.86;1765350;78;21683;-45
2021/09/01 02:26:48;;;;;;;4.65;3.33;;;;;;;23.88;54.30;100463.79;1760246;78;21066;-45
2021/09/01 02:29:14;;;;;;;3.95;3.27;;;;;;;23.88;54.31;100469.34;1766885;78;21111;-45
2021/09/01 02:31:40;;;;;;;5.70;3.37;;;;;;;23.87;54.31;100466.33;1772995;78;20999;-44
2021/09/01 02:34:06;;;;;;;5.85;3.62;;;;;;;23.86;54.30;100475.23;1764118;78;21313;-44
2021/09/01 02:36:32;;;;;;;5.37;3.70;;;;;;;23.86;54.30;100478.02;1776039;78;21625;-45
2021/09/01 02:38:59;;;;;;;4.33;3.30;;;;;;;23.86;54.31;100484.15;1778361;78;21058;-45
2021/09/01 02:41:25;;;;;;;5.30;3.25;;;;;;;23.86;54.31;100481.37;1739508;78;21075;-45
2021/09/01 02:43:52;;;;;;;4.95;3.40;;;;;;;23.84;54.31;100474.79;1767955;78;21043;-45
2021/09/01 02:46:18;;;;;;;3.83;2.42;;;;;;;23.84;54.30;100473.98;1761992;78;21183;-45
2021/09/01 02:48:45;;;;;;;3.52;2.83;;;;;;;23.83;54.30;100475.13;1768278;78;21080;-45
2021/09/01 02:51:11;;;;;;;4.53;3.12;;;;;;;23.82;54.32;100475.70;1774055;78;21058;-47
2021/09/01 02:53:37;;;;;;;4.45;3.20;;;;;;;23.82;54.30;100481.83;1777830;78;21080;-45
2021/09/01 02:56:04;;;;;;;4.78;3.33;;;;;;;23.82;54.33;100484.04;1775797;78;21009;-45
2021/09/01 02:58:30;;;;;;;4.20;3.20;;;;;;;23.81;54.30;100481.02;1765659;78;21393;-46
2021/09/01 03:00:56;;;;;;;3.90;2.65;;;;;;;23.81;54.32;100473.27;1768503;78;21091;-46
2021/09/01 03:03:22;;;;;;;4.60;3.30;;;;;;;23.79;54.30;100473.63;1767865;78;21051;-45
2021/09/01 03:05:49;;;;;;;5.17;3.00;;;;;;;23.80;54.31;100471.66;1769011;78;21602;-45
2021/09/01 03:08:15;;;;;;;4.55;3.25;;;;;;;23.79;54.32;100468.08;1784110;78;20904;-45
2021/09/01 03:10:41;;;;;;;5.67;3.10;;;;;;;23.78;54.32;100472.00;1762638;78;21162;-45
2021/09/01 03:13:08;;;;;;;4.70;3.35;;;;;;;23.79;54.31;100475.02;1767224;78;21097;-45
2021/09/01 03:15:34;;;;;;;4.05;2.77;;;;;;;23.78;54.31;100480.91;1758065;78;20972;-45
2021/09/01 03:18:00;;;;;;;4.05;3.10;;;;;;;23.77;54.32;100475.92;1771124;78;21035;-46
2021/09/01 03:20:26;;;;;;;3.45;2.80;;;;;;;23.76;54.31;100472.94;1765919;78;21057;-45
2021/09/01 03:22:52;;;;;;;4.40;2.98;;;;;;;23.76;54.30;100474.33;1768766;78;21612;-44
2021/09/01 03:25:18;;;;;;;4.12;3.15;;;;;;;23.76;54.28;100478.50;1792691;78;21530;-45
2021/09/01 03:27:44;;;;;;;4.83;2.75;;;;;;;23.75;54.27;100481.61;1787747;78;21080;-44
2021/09/01 03:30:11;;;;;;;4.00;3.08;;;;;;;23.74;54.26;100482.77;1800665;78;21091;-45
2021/09/01 03:32:37;;;;;;;4.55;2.95;;;;;;;23.74;54.22;100482.77;1780220;78;21055;-46
2021/09/01 03:35:05;;;;;;;4.47;3.10;;;;;;;23.73;54.22;100483.34;1792874;78;22148;-45
2021/09/01 03:37:31;;;;;;;4.37;3.55;;;;;;;23.72;54.20;100493.42;1791685;78;21590;-45
2021/09/01 03:39:57;;;;;;;3.25;2.90;;;;;;;23.72;54.17;100490.04;1788704;78;21114;-46
2021/09/01 03:42:23;;;;;;;2.92;2.62;;;;;;;23.72;54.17;100503.14;1791520;78;21036;-44
2021/09/01 03:44:50;;;;;;;5.00;3.20;;;;;;;23.72;54.14;100509.48;1789340;78;20905;-46
2021/09/01 03:47:16;;;;;;;5.08;2.98;;;;;;;23.71;54.11;100506.50;1789954;78;21452;-45
2021/09/01 03:49:42;;;;;;;5.05;3.10;;;;;;;23.70;54.08;100509.61;1783991;78;21612;-45
2021/09/01 03:52:08;;;;;;;3.72;2.92;;;;;;;23.70;54.06;100509.61;1783441;78;21099;-45
2021/09/01 03:54:34;;;;;;;3.65;3.02;;;;;;;23.69;54.04;100506.02;1786482;78;20969;-44
2021/09/01 03:57:00;;;;;;;3.22;2.60;;;;;;;23.66;54.02;100502.55;1781698;78;21049;-45
2021/09/01 03:59:26;;;;;;;4.10;3.15;;;;;;;23.68;53.99;100509.95;1783892;78;23239;-46
2021/09/01 04:01:52;;;;;;;3.87;2.90;;;;;;;23.66;53.98;100507.53;1784347;78;20976;-45
2021/09/01 04:04:19;;;;;;;3.42;2.60;;;;;;;23.65;53.95;100504.52;1790300;78;20895;-45
2021/09/01 04:06:45;;;;;;;4.35;2.98;;;;;;;23.65;53.93;100510.64;1785845;78;21123;-45
2021/09/01 04:09:11;;;;;;;5.55;3.05;;;;;;;23.64;53.91;100504.27;1756168;80;21009;-44
2021/09/01 04:11:38;;;;;;;3.20;2.72;;;;;;;23.63;53.89;100506.84;1791495;78;21197;-44
2021/09/01 04:14:04;;;;;;;3.80;3.00;;;;;;;23.63;53.88;100516.56;1792522;78;21645;-44
2021/09/01 04:16:30;;;;;;;4.67;2.77;;;;;;;23.62;53.83;100521.06;1790230;78;21118;-45
2021/09/01 04:18:56;;;;;;;3.95;2.67;;;;;;;23.61;53.83;100517.47;1785976;78;21321;-44
2021/09/01 04:21:22;;;;;;;3.77;2.62;;;;;;;23.61;53.82;100522.21;1786590;78;21115;-44
2021/09/01 04:23:48;;;;;;;3.12;2.42;;;;;;;23.60;53.81;100522.78;1783962;78;21613;-45
2021/09/01 04:26:15;;;;;;;3.95;2.62;;;;;;;23.60;53.77;100523.36;1791240;78;20991;-46
2021/09/01 04:28:41;;;;;;;3.92;2.65;;;;;;;23.59;53.77;100520.38;1788676;78;21143;-45
2021/09/01 04:31:07;;;;;;;2.83;2.50;;;;;;;23.59;53.78;100514.22;1800768;78;21123;-45
2021/09/01 04:33:33;;;;;;;3.20;2.55;;;;;;;23.58;53.78;100518.17;1749748;79;21689;-45
2021/09/01 04:35:59;;;;;;;3.50;2.70;;;;;;;23.58;53.76;100522.34;1748018;79;21220;-44
2021/09/01 04:38:25;;;;;;;5.67;2.77;;;;;;;23.57;53.74;100510.17;1789950;78;21571;-47
2021/09/01 04:40:52;;;;;;;4.62;2.95;;;;;;;23.56;53.74;100519.08;1780065;78;21067;-45
2021/09/01 04:43:18;;;;;;;5.20;3.30;;;;;;;23.55;53.74;100517.45;1787909;78;22228;-44
2021/09/01 04:45:44;;;;;;;4.10;2.85;;;;;;;23.55;53.74;100511.89;1791595;78;21119;-46
2021/09/01 04:48:10;;;;;;;4.15;2.85;;;;;;;23.55;53.72;100509.72;1789942;78;22372;-44
2021/09/01 04:50:36;;;;;;;3.67;2.92;;;;;;;23.54;53.74;100514.46;1786124;78;20988;-45
2021/09/01 04:53:03;;;;;;;3.20;2.67;;;;;;;23.54;53.73;100517.81;1786099;78;21080;-45
2021/09/01 04:55:29;;;;;;;3.62;2.80;;;;;;;23.53;53.73;100513.41;1789611;78;21006;-45
2021/09/01 04:57:55;;;;;;;4.12;3.15;;;;;;;23.53;53.73;100518.39;1792237;78;21053;-44
2021/09/01 05:00:22;;;;;;;3.45;3.08;;;;;;;23.53;53.72;100520.34;1790077;78;21152;-44
2021/09/01 05:02:48;;;;;;;4.33;3.25;;;;;;;23.52;53.72;100519.53;1796958;78;21030;-44
2021/09/01 05:05:14;;;;;;;3.20;2.40;;;;;;;23.52;53.71;100520.11;1788417;78;21001;-45
2021/09/01 05:07:40;;;;;;;4.65;2.90;;;;;;;23.51;53.69;100517.91;1788342;78;21040;-44
2021/09/01 05:10:07;;;;;;;3.77;2.90;;;;;;;23.50;53.69;100523.25;1790596;78;20901;-44
2021/09/01 05:12:33;;;;;;;3.85;2.95;;;;;;;23.50;53.69;100523.25;1789646;78;21117;-43
2021/09/01 05:14:59;;;;;;;3.05;2.70;;;;;;;23.50;53.69;100522.44;1791337;78;20948;-44
2021/09/01 05:17:25;;;;;;;3.90;2.98;;;;;;;23.50;53.68;100532.16;1793371;78;20910;-46
2021/09/01 05:19:51;;;;;;;3.50;2.87;;;;;;;23.49;53.68;100524.97;1783849;78;20995;-44
2021/09/01 05:22:20;;;;;;;3.58;3.02;;;;;;;23.48;53.68;100528.32;1783843;78;21139;-44
2021/09/01 05:24:51;;;;;;;4.00;3.02;;;;;;;23.48;53.66;100523.34;1788974;78;21408;-44
2021/09/01 05:27:20;;;;;;;5.25;2.98;;;;;;;23.48;53.69;100520.56;1790149;78;21068;-44
2021/09/01 05:29:48;;;;;;;3.72;2.75;;;;;;;23.47;53.70;100513.38;1792630;78;21164;-44
2021/09/01 05:32:19;;;;;;;5.22;3.17;;;;;;;23.47;53.70;100516.16;1793749;78;21001;-45
2021/09/01 05:34:47;;;;;;;4.03;3.27;;;;;;;23.46;53.71;100509.82;1792031;78;21131;-47
2021/09/01 05:37:13;;;;;;;3.52;2.70;;;;;;;23.46;53.72;100505.66;1792376;78;21461;-44
2021/09/01 05:39:43;;;;;;;3.87;3.00;;;;;;;23.45;53.74;100505.98;1790509;78;20896;-46
2021/09/01 05:42:16;;;;;;;4.87;3.12;;;;;;;23.46;53.75;100510.39;1785993;78;21624;-46
2021/09/01 05:44:42;;;;;;;4.20;2.92;;;;;;;23.46;53.77;100500.67;1790524;78;21095;-46
2021/09/01 05:47:10;;;;;;;4.90;3.10;;;;;;;23.49;53.79;100508.31;1787707;78;21071;-46
2021/09/01 05:49:36;;;;;;;12.37;5.70;;;;;;;23.50;53.81;100498.26;1789759;78;21160;-46
2021/09/01 05:52:04;;;;;;;8.55;4.90;;;;;;;23.52;53.82;100502.88;1790938;78;21489;-46
2021/09/01 05:54:31;;;;;;;10.23;5.80;;;;;;;23.55;53.91;100502.17;1788104;78;21055;-46
2021/09/01 05:57:12;;;;;;;8.68;6.15;;;;;;;23.57;53.96;100499.06;1792708;78;21020;-49
2021/09/01 05:59:58;;;;;;;12.53;6.83;;;;;;;23.60;53.98;100491.42;1796491;78;21032;-45
2021/09/01 06:02:59;;;;;;;9.43;5.40;;;;;;;23.62;54.07;100487.16;1789688;78;21036;-46
2021/09/01 06:05:26;;;;;;;;;;;;;;;23.65;54.20;100476.74;1799268;78;21088;-46
2021/09/01 06:07:59;;;;;;;10.50;4.55;;;;;;;23.65;54.28;100478.70;1739731;78;20140;-46
2021/09/01 06:10:29;;;;;;;10.35;4.78;;;;;;;23.65;54.35;100472.58;1727342;81;21569;-47
2021/09/01 06:12:58;;;;;;;7.92;4.85;;;;;;;23.64;54.47;100475.11;1736436;81;21081;-47
2021/09/01 06:15:24;;;;;;;11.73;5.83;;;;;;;23.65;54.60;100479.52;1717096;82;21079;-46
2021/09/01 06:17:50;;;;;;;17.50;7.20;;;;;;;23.66;54.69;100481.15;1727757;81;21584;-47
2021/09/01 06:20:17;;;;;;;20.32;8.50;;;;;;;23.67;54.79;100477.80;1759133;80;21061;-48
2021/09/01 06:22:43;;;;;;;24.35;8.18;;;;;;;23.67;54.87;100470.85;1755902;80;21009;-45
2021/09/01 06:25:10;;;;;;;19.10;8.00;;;;;;;23.68;54.94;100478.81;1754554;80;20994;-48
2021/09/01 06:27:37;;;;;;;17.67;7.35;;;;;;;23.68;54.97;100464.11;1761220;80;21443;-47
2021/09/01 06:30:05;;;;;;;20.12;6.37;;;;;;;23.68;55.01;100464.93;1764282;80;21105;-47
2021/09/01 06:32:31;;;;;;;13.58;5.97;;;;;;;23.70;55.04;100472.11;1761184;79;21078;-48
2021/09/01 06:34:57;;;;;;;14.83;6.08;;;;;;;23.71;55.03;100483.46;1761389;79;21446;-47
2021/09/01 06:37:23;;;;;;;16.42;7.00;;;;;;;23.71;55.05;100483.46;1764862;79;20993;-45
2021/09/01 06:39:51;;;;;;;12.65;6.42;;;;;;;23.72;55.08;100485.09;1758893;79;21120;-47
2021/09/01 06:42:18;;;;;;;15.38;7.00;;;;;;;23.71;55.10;100475.13;1727970;80;21013;-46
2021/09/01 06:44:45;;;;;;;16.73;7.03;;;;;;;23.72;55.09;100482.31;1769855;79;21184;-46
2021/09/01 06:47:11;;;;;;;17.32;6.05;;;;;;;23.72;55.09;100473.38;1757426;80;21025;-46
2021/09/01 06:49:37;;;;;;;16.57;7.12;;;;;;;23.72;55.11;100469.20;1765493;79;21006;-46
2021/09/01 06:52:04;;;;;;;13.35;6.75;;;;;;;23.73;55.12;100471.41;1762779;80;21137;-47
2021/09/01 06:54:30;;;;;;;14.93;6.00;;;;;;;23.73;55.10;100470.02;1768452;80;21040;-48
2021/09/01 06:56:57;;;;;;;19.17;6.78;;;;;;;23.75;55.09;100477.44;1765384;79;21463;-46
2021/09/01 06:59:23;;;;;;;13.72;6.33;;;;;;;23.74;55.12;100480.80;1759972;79;21052;-48
2021/09/01 07:01:49;;;;;;;13.70;6.55;;;;;;;23.74;55.10;100478.59;1759173;80;21098;-46
2021/09/01 07:04:15;;;;;;;13.15;6.78;;;;;;;23.75;55.10;100477.44;1761142;79;21203;-48
2021/09/01 07:06:42;;;;;;;16.12;6.25;;;;;;;23.76;55.09;100480.46;1758275;79;21071;-46
2021/09/01 07:09:08;;;;;;;14.40;6.30;;;;;;;23.75;55.07;100479.65;1753287;80;21115;-46
2021/09/01 07:11:34;;;;;;;17.05;6.50;;;;;;;23.76;55.07;100481.84;1759564;79;21468;-45
2021/09/01 07:14:00;;;;;;;14.05;6.35;;;;;;;23.77;55.05;100475.11;1762646;79;21198;-47
2021/09/01 07:16:26;;;;;;;13.50;6.53;;;;;;;23.76;55.06;100475.72;1763840;79;21328;-45
2021/09/01 07:18:53;;;;;;;14.33;5.90;;;;;;;23.77;55.06;100482.06;1763352;79;21423;-49
2021/09/01 07:21:19;;;;;;;13.55;5.72;;;;;;;23.77;55.05;100480.09;1764628;79;21111;-47
2021/09/01 07:23:45;;;;;;;12.95;6.92;;;;;;;23.77;55.02;100486.22;1769163;80;20858;-46
2021/09/01 07:26:12;;;;;;;11.65;5.37;;;;;;;23.78;55.00;100486.47;1765260;80;21008;-46
2021/09/01 07:28:38;;;;;;;12.43;5.83;;;;;;;23.77;55.00;100483.45;1762666;80;21070;-47
2021/09/01 07:31:06;;;;;;;11.68;5.12;;;;;;;23.78;54.99;100485.08;1760533;80;21015;-47
2021/09/01 07:33:32;;;;;;;10.20;5.58;;;;;;;23.78;54.97;100490.63;1759219;80;21445;-46
2021/09/01 07:35:58;;;;;;;12.23;5.65;;;;;;;23.79;54.97;100488.09;1763347;79;20967;-45
2021/09/01 07:38:25;;;;;;;13.25;5.60;;;;;;;23.78;54.96;100485.89;1765126;79;21095;-45
2021/09/01 07:40:52;;;;;;;11.63;5.53;;;;;;;23.79;54.93;100481.96;1768659;79;21435;-45
2021/09/01 07:43:26;;;;;;;11.70;5.58;;;;;;;23.79;54.96;100481.15;1742666;80;21114;-46
2021/09/01 07:45:47;;;;;;;11.33;5.83;;;;;;;23.80;54.92;100470.27;1759395;80;21104;-46
2021/09/01 07:48:14;;;;;;;12.65;6.00;;;;;;;23.80;54.92;100473.87;1768551;80;21091;-46
2021/09/01 07:50:41;;;;;;;10.98;6.17;;;;;;;23.80;54.90;100466.11;1756011;79;21527;-47
2021/09/01 07:53:07;;;;;;;10.25;5.30;;;;;;;23.80;54.88;100461.94;1766147;80;21528;-45
2021/09/01 07:55:33;;;;;;;10.05;5.70;;;;;;;23.80;54.86;100464.14;1743728;80;21050;-45
2021/09/01 07:57:59;;;;;;;8.93;4.90;;;;;;;23.81;54.82;100464.92;1758947;80;21583;-45
2021/09/01 08:00:25;;;;;;;9.33;5.65;;;;;;;23.82;54.81;100461.00;1759269;80;21092;-48
2021/09/01 08:02:52;;;;;;;9.35;5.45;;;;;;;23.82;54.79;100462.39;1746894;80;21051;-46
2021/09/01 08:05:18;;;;;;;9.00;5.28;;;;;;;23.82;54.77;100456.83;1770886;79;21110;-47
2021/09/01 08:07:45;;;;;;;8.23;5.22;;;;;;;23.82;54.76;100459.61;1743005;80;21059;-46
2021/09/01 08:10:11;;;;;;;12.55;5.42;;;;;;;23.82;54.73;100464.59;1736722;81;21503;-45
2021/09/01 08:12:37;;;;;;;9.70;5.53;;;;;;;23.83;54.71;100464.02;1762295;79;21143;-47
2021/09/01 08:15:05;;;;;;;11.35;5.42;;;;;;;23.82;54.70;100462.39;1762041;79;21008;-47
2021/09/01 08:17:31;;;;;;;10.45;5.42;;;;;;;23.83;54.68;100458.45;1768176;80;20979;-46
2021/09/01 08:19:57;;;;;;;9.08;4.95;;;;;;;23.83;54.68;100462.62;1757076;80;20923;-47
2021/09/01 08:22:23;;;;;;;8.63;5.92;;;;;;;23.83;54.67;100459.27;1757779;79;21057;-46
2021/09/01 08:24:49;;;;;;;9.23;4.90;;;;;;;23.84;54.64;100453.14;1757238;80;21007;-46
2021/09/01 08:27:15;;;;;;;9.85;5.40;;;;;;;23.83;54.63;100449.55;1742841;80;21013;-45
2021/09/01 08:29:42;;;;;;;10.38;5.20;;;;;;;23.84;54.61;100450.36;1743567;81;21113;-46
2021/09/01 08:32:08;;;;;;;11.88;5.15;;;;;;;23.85;54.61;100449.22;1743366;80;21088;-45
2021/09/01 08:34:34;;;;;;;7.72;4.67;;;;;;;23.85;54.61;100451.99;1743884;81;21638;-47
2021/09/01 08:37:02;;;;;;;10.32;5.15;;;;;;;23.85;54.60;100453.38;1744571;80;21045;-46
2021/09/01 08:39:28;;;;;;;11.15;4.65;;;;;;;23.85;54.60;100452.77;1745191;81;21009;-46
2021/09/01 08:41:55;;;;;;;10.65;5.05;;;;;;;23.86;54.58;100452.20;1743835;80;21237;-46
2021/09/01 08:44:21;;;;;;;10.48;4.80;;;;;;;23.85;54.46;100451.99;1746949;80;21265;-47
2021/09/01 08:46:50;;;;;;;7.12;4.35;;;;;;;23.85;54.21;100461.72;1743767;80;21099;-46
2021/09/01 08:49:18;;;;;;;10.10;4.80;;;;;;;23.86;53.88;100449.42;1747502;81;21104;-45
2021/09/01 08:51:49;;;;;;;7.70;4.65;;;;;;;23.85;53.68;100451.99;1744196;80;21046;-46
2021/09/01 08:54:15;;;;;;;7.10;3.92;;;;;;;23.85;53.60;100445.05;1749483;80;22004;-47
2021/09/01 08:56:42;;;;;;;9.33;4.67;;;;;;;23.85;53.54;100458.33;1743035;80;21720;-46
2021/09/01 08:59:08;;;;;;;7.60;4.35;;;;;;;23.85;53.52;100453.38;1747834;81;21061;-46
2021/09/01 09:01:49;;;;;;;7.12;5.00;;;;;;;23.85;53.46;100446.44;1743211;81;21041;-46
2021/09/01 09:04:26;;;;;;;7.17;4.45;;;;;;;23.85;53.40;100445.05;1728651;82;21073;-46
2021/09/01 09:06:57;;;;;;;7.00;4.80;;;;;;;23.84;53.32;100445.62;1755404;80;21453;-46
2021/09/01 09:09:27;;;;;;;7.35;4.22;;;;;;;23.84;53.30;100438.67;1731432;81;21052;-46
2021/09/01 09:11:54;;;;;;;6.92;4.47;;;;;;;23.85;53.26;100429.77;1754486;80;21096;-45
2021/09/01 09:14:40;;;;;;;7.47;4.45;;;;;;;23.85;53.25;100431.16;1749376;80;21460;-45
2021/09/01 09:17:16;;;;;;;10.03;4.10;;;;;;;23.85;53.23;100428.38;1750827;81;21505;-46
2021/09/01 09:20:04;;;;;;;7.25;3.70;;;;;;;23.85;53.20;100420.05;1747188;81;21609;-46
2021/09/01 09:22:34;;;;;;;6.17;3.70;;;;;;;23.85;53.17;100426.98;1750937;80;21541;-46
2021/09/01 09:25:23;;;;;;;5.67;3.80;;;;;;;23.85;53.17;100421.43;1744688;80;21126;-46
2021/09/01 09:28:00;;;;;;;6.50;3.80;;;;;;;23.85;53.17;100418.66;1748441;80;21069;-46
2021/09/01 09:30:30;;;;;;;9.25;4.45;;;;;;;23.84;53.17;100413.67;1752391;79;22582;-46
2021/09/01 09:33:15;;;;;;;7.33;3.85;;;;;;;23.85;53.14;100406.15;1763630;80;21107;-47
2021/09/01 09:35:58;;;;;;;5.55;3.83;;;;;;;23.85;53.06;100406.15;1755127;80;21057;-46
2021/09/01 09:38:42;;;;;;;5.95;3.70;;;;;;;23.85;53.04;100393.65;1754166;80;22276;-46
2021/09/01 09:41:28;;;;;;;6.50;3.98;;;;;;;23.86;53.02;100392.47;1735614;80;21139;-46
2021/09/01 09:43:54;;;;;;;7.08;3.42;;;;;;;23.85;52.98;100396.42;1746388;80;21084;-47
2021/09/01 09:46:20;;;;;;;7.37;3.72;;;;;;;23.86;52.94;100400.80;1747641;80;21215;-47
2021/09/01 09:48:47;;;;;;;6.05;3.80;;;;;;;23.86;52.98;100391.08;1725225;81;21509;-48
2021/09/01 09:51:18;;;;;;;15.65;4.05;;;;;;;23.87;52.95;100385.76;1746950;80;21083;-49
2021/09/01 09:53:46;;;;;;;;;;;;;;;23.88;52.97;100384.61;1754981;80;21027;-46
2021/09/01 09:56:21;;;;;;;5.10;3.27;;;;;;;23.89;52.91;100373.13;1737451;81;20203;-46
2021/09/01 09:58:52;;;;;;;12.23;3.75;;;;;;;23.89;52.71;100368.17;1732965;81;21985;-52
2021/09/01 10:01:20;;;;;;;6.40;3.45;;;;;;;23.88;52.43;100372.92;1751832;80;21061;-46
2021/09/01 10:03:47;;;;;;;6.92;3.20;;;;;;;23.88;52.16;100377.66;1750716;80;21395;-46
2021/09/01 10:06:16;;;;;;;5.22;3.17;;;;;;;23.86;51.89;100367.46;1754903;80;21170;-45
2021/09/01 10:08:42;;;;;;;6.15;2.85;;;;;;;23.87;51.64;100365.73;1756424;80;21091;-44
2021/09/01 10:11:10;;;;;;;5.78;3.20;;;;;;;23.86;51.35;100356.35;1757306;80;22629;-47
2021/09/01 10:13:42;;;;;;;8.53;3.45;;;;;;;23.84;51.10;100355.91;1752908;80;21555;-45
2021/09/01 10:16:26;;;;;;;6.92;3.55;;;;;;;23.84;50.84;100376.74;1756923;80;21103;-44
2021/09/01 10:19:04;;;;;;;4.72;2.83;;;;;;;23.83;50.54;100359.27;1751432;80;20962;-44
2021/09/01 10:21:33;;;;;;;5.75;2.47;;;;;;;23.83;50.30;100362.04;1755597;80;21108;-47
2021/09/01 10:24:20;;;;;;;5.78;2.90;;;;;;;23.82;50.05;100370.14;1760899;80;22134;-45
2021/09/01 10:27:23;;;;;;;3.30;2.52;;;;;;;23.81;49.78;100360.17;1746743;80;21056;-46
2021/09/01 10:30:05;;;;;;;4.20;2.55;;;;;;;23.82;49.47;100354.05;1789844;78;21068;-44
2021/09/01 10:32:46;;;;;;;3.60;2.25;;;;;;;23.82;49.16;100361.80;1791287;78;21018;-43
2021/09/01 10:35:18;;;;;;;4.60;2.25;;;;;;;23.83;48.88;100358.45;1762287;78;21088;-43
2021/09/01 10:37:53;;;;;;;5.10;2.30;;;;;;;23.82;48.57;100385.41;1778061;78;23822;-45
2021/09/01 10:40:31;;;;;;;3.58;2.45;;;;;;;23.82;48.32;100352.66;1789093;78;21139;-44
2021/09/01 10:43:02;;;;;;;2.92;2.35;;;;;;;23.83;48.11;100357.06;1788591;78;21079;-46
2021/09/01 10:45:37;;;;;;;2.80;2.40;;;;;;;23.83;47.88;100390.39;1785836;78;21151;-45
2021/09/01 10:48:09;;;;;;;2.52;2.12;;;;;;;23.82;47.65;100352.08;1787436;78;21035;-44
2021/09/01 10:50:41;;;;;;;2.95;2.25;;;;;;;23.83;47.46;100358.45;1794272;78;21144;-43
2021/09/01 10:53:24;;;;;;;3.33;2.08;;;;;;;23.83;47.34;100355.67;1784405;79;21124;-45
2021/09/01 10:55:56;;;;;;;5.50;2.52;;;;;;;23.84;47.13;100348.96;1786699;78;20949;-47
2021/09/01 10:58:39;;;;;;;2.85;2.00;;;;;;;23.83;46.96;100349.54;1787058;78;21015;-48
2021/09/01 11:01:16;;;;;;;5.42;2.20;;;;;;;23.85;46.79;100345.03;1788134;78;21035;-49
2021/09/01 11:03:50;;;;;;;3.47;2.00;;;;;;;23.86;46.62;100352.19;1795909;78;21061;-53
2021/09/01 11:06:22;;;;;;;4.12;2.10;;;;;;;23.85;46.49;100341.64;1793838;78;21512;-47
2021/09/01 11:09:00;;;;;;;3.70;1.92;;;;;;;23.86;46.54;100330.77;1785738;78;21078;-48
2021/09/01 11:11:41;;;;;;;3.52;2.12;;;;;;;23.89;46.85;100327.89;1786478;78;21065;-48
2021/09/01 11:14:08;;;;;;;3.80;2.10;;;;;;;23.91;47.17;100333.31;1788178;78;21124;-48
2021/09/01 11:16:34;;;;;;;4.35;2.02;;;;;;;23.92;47.46;100336.33;1779858;78;21084;-48
2021/09/01 11:19:09;;;;;;;3.05;2.08;;;;;;;23.94;47.77;100329.00;1789496;78;21646;-50
2021/09/01 11:21:46;;;;;;;3.85;2.33;;;;;;;23.96;48.06;100331.69;1788190;78;21529;-49
2021/09/01 11:24:18;;;;;;;2.65;2.22;;;;;;;23.98;48.34;100324.36;1798370;78;21026;-48
2021/09/01 11:26:45;;;;;;;2.70;2.08;;;;;;;23.99;48.64;100325.41;1794641;78;21049;-48
2021/09/01 11:29:12;;;;;;;2.55;1.82;;;;;;;24.02;48.87;100326.09;1806892;78;21208;-49
2021/09/01 11:31:44;;;;;;;4.22;2.00;;;;;;;24.06;49.03;100327.61;1808622;78;21047;-48